Time;durP1;ratioP1;P1;durP2;ratioP2;P2;SDS_P1;SDS_P2;PMS_P1;PMS_P2;Temp;Humidity;BMP_temperature;BMP_pressure;BME280_temperature;BME280_humidity;BME280_pressure;Samples;Min_cycle;Max_cycle;Signal;HPM_P1;HPM_P2
2022/08/28 00:00:15;;;;;;;17.35;3.35;;;12.60;99.90;;;;;;5032132;28;20112;-29
2022/08/28 00:02:41;;;;;;;11.52;2.72;;;12.60;99.90;;;;;;5019041;28;20084;-28
2022/08/28 00:05:12;;;;;;;11.20;2.85;;;12.70;99.90;;;;;;5031372;28;20098;-28
2022/08/28 00:07:38;;;;;;;12.27;2.10;;;12.80;99.90;;;;;;5033647;28;20056;-28
2022/08/28 00:10:06;;;;;;;6.18;2.22;;;12.90;99.90;;;;;;5033697;28;20045;-30
2022/08/28 00:12:31;;;;;;;9.80;3.63;;;12.80;99.90;;;;;;5030470;28;20059;-29
2022/08/28 00:14:57;;;;;;;11.60;2.70;;;12.70;99.90;;;;;;5033734;28;20045;-28
2022/08/28 00:17:26;;;;;;;12.35;2.67;;;12.70;99.90;;;;;;5032136;28;20129;-28
2022/08/28 00:19:51;;;;;;;9.52;2.47;;;12.50;99.90;;;;;;5032804;28;20045;-28
2022/08/28 00:22:17;;;;;;;11.63;2.53;;;12.50;99.90;;;;;;5031988;28;20057;-28
2022/08/28 00:24:44;;;;;;;11.82;2.65;;;12.40;99.90;;;;;;5034014;28;20388;-29
2022/08/28 00:29:54;;;;;;;12.43;2.83;;;12.30;99.90;;;;;;5031930;28;20049;-27
2022/08/28 00:32:24;;;;;;;13.68;3.83;;;12.40;99.90;;;;;;5045419;28;20065;-28
2022/08/28 00:34:50;;;;;;;12.15;3.30;;;12.20;99.90;;;;;;5033136;28;20125;-28
2022/08/28 00:37:18;;;;;;;12.05;2.90;;;12.20;99.90;;;;;;5033390;28;20091;-27
2022/08/28 00:39:44;;;;;;;7.25;2.83;;;12.20;99.90;;;;;;5048581;28;20136;-28
2022/08/28 00:42:09;;;;;;;13.30;2.85;;;12.40;99.90;;;;;;5031237;28;20076;-28
2022/08/28 00:44:36;;;;;;;10.82;2.25;;;12.30;99.90;;;;;;5033015;28;20479;-28
2022/08/28 00:47:02;;;;;;;9.20;2.63;;;12.20;99.90;;;;;;5030835;28;20046;-27
2022/08/28 00:49:34;;;;;;;6.47;2.38;;;12.40;99.90;;;;;;5032768;28;20049;-28
2022/08/28 00:52:07;;;;;;;12.70;2.42;;;12.20;99.90;;;;;;5033044;28;20387;-28
2022/08/28 00:54:48;;;;;;;11.70;2.17;;;12.30;99.90;;;;;;5031626;28;20069;-28
2022/08/28 00:57:19;;;;;;;9.55;2.85;;;12.30;99.90;;;;;;5033041;28;20111;-28
2022/08/28 00:59:45;;;;;;;7.40;2.58;;;12.40;99.90;;;;;;5033924;28;20053;-27
2022/08/28 01:02:10;;;;;;;10.35;2.58;;;12.30;99.90;;;;;;5036153;28;20383;-28
2022/08/28 01:04:37;;;;;;;14.88;2.70;;;12.30;99.90;;;;;;5035741;28;20042;-28
2022/08/28 01:07:13;;;;;;;11.30;2.97;;;12.10;99.90;;;;;;5036071;28;20049;-28
2022/08/28 01:09:49;;;;;;;9.90;2.40;;;12.10;99.90;;;;;;5037627;28;20041;-28
2022/08/28 01:12:23;;;;;;;11.38;2.90;;;12.10;1.00;;;;;;5049881;28;20491;-28
2022/08/28 01:14:52;;;;;;;8.52;2.55;;;12.00;1.00;;;;;;5049774;28;20391;-28
2022/08/28 01:17:22;;;;;;;13.15;3.25;;;12.10;1.00;;;;;;5035700;28;20510;-27
2022/08/28 01:20:01;;;;;;;12.23;2.88;;;12.00;1.00;;;;;;5017413;28;20464;-28
2022/08/28 01:22:37;;;;;;;9.60;2.65;;;11.80;1.00;;;;;;5049967;28;20054;-28
2022/08/28 01:25:07;;;;;;;9.98;2.70;;;11.90;1.00;;;;;;5033608;28;20427;-28
2022/08/28 01:27:37;;;;;;;13.27;2.45;;;11.70;1.00;;;;;;5035198;28;20434;-28
2022/08/28 01:30:03;;;;;;;9.70;2.78;;;11.80;1.00;;;;;;5035594;28;20115;-28
2022/08/28 01:32:34;;;;;;;8.98;2.40;;;11.80;1.00;;;;;;5034943;28;20054;-27
2022/08/28 01:35:00;;;;;;;8.45;2.80;;;11.80;1.00;;;;;;5022995;28;20045;-28
2022/08/28 01:37:27;;;;;;;12.57;3.10;;;11.60;1.00;;;;;;5035395;28;20388;-29
2022/08/28 01:39:53;;;;;;;11.15;3.30;;;11.80;1.00;;;;;;5035344;28;20430;-28
2022/08/28 01:42:19;;;;;;;11.93;2.95;;;11.80;1.00;;;;;;5036177;28;20120;-28
2022/08/28 01:44:45;;;;;;;8.93;2.40;;;11.80;1.00;;;;;;5035070;28;20064;-28
2022/08/28 01:47:11;;;;;;;13.02;2.60;;;11.70;1.00;;;;;;5035844;28;20488;-28
2022/08/28 01:49:36;;;;;;;9.80;3.03;;;11.90;1.00;;;;;;5035308;28;20056;-28
2022/08/28 01:52:03;;;;;;;6.90;2.20;;;11.90;1.00;;;;;;5031344;28;20045;-28
2022/08/28 01:54:29;;;;;;;11.70;2.40;;;12.00;1.00;;;;;;5022215;28;20424;-28
2022/08/28 01:56:55;;;;;;;7.55;2.35;;;11.90;1.00;;;;;;5028759;28;20037;-29
2022/08/28 01:59:26;;;;;;;9.48;2.20;;;11.80;1.00;;;;;;5035835;28;20045;-28
2022/08/28 02:01:52;;;;;;;12.85;2.38;;;11.90;1.00;;;;;;5032787;28;20411;-29
2022/08/28 02:04:18;;;;;;;11.02;3.15;;;11.70;1.00;;;;;;5033279;28;20064;-28
2022/08/28 02:06:43;;;;;;;11.07;1.83;;;11.80;1.00;;;;;;5032417;28;20499;-28
2022/08/28 02:09:10;;;;;;;9.95;2.40;;;11.60;1.00;;;;;;5034929;28;20049;-28
2022/08/28 02:11:37;;;;;;;10.52;2.30;;;11.70;1.00;;;;;;5034704;28;20072;-27
2022/08/28 02:14:03;;;;;;;8.63;2.28;;;11.60;1.00;;;;;;5034430;28;20500;-28
2022/08/28 02:16:29;;;;;;;11.25;2.75;;;11.50;1.00;;;;;;5033868;28;20059;-28
2022/08/28 02:18:54;;;;;;;11.93;2.03;;;11.50;1.00;;;;;;5034573;28;20042;-27
2022/08/28 02:21:24;;;;;;;8.85;2.53;;;11.40;1.00;;;;;;5049989;28;20041;-28
2022/08/28 02:23:53;;;;;;;;;;;11.30;1.00;;;;;;5034131;28;20080;-28
2022/08/28 02:26:19;;;;;;;13.00;3.28;;;11.30;1.00;;;;;;5035611;28;19921;-28
2022/08/28 02:28:45;;;;;;;12.13;2.80;;;11.40;1.00;;;;;;5034137;28;20111;-28
2022/08/28 02:31:11;;;;;;;9.73;2.25;;;11.40;1.00;;;;;;5034539;28;20053;-27
2022/08/28 02:33:40;;;;;;;9.93;2.35;;;11.30;1.00;;;;;;5034234;28;20085;-27
2022/08/28 02:36:10;;;;;;;11.90;3.03;;;11.20;1.00;;;;;;5034340;28;20049;-29
2022/08/28 02:38:37;;;;;;;11.35;2.45;;;11.10;1.00;;;;;;5033317;28;20121;-28
2022/08/28 02:41:03;;;;;;;9.95;3.05;;;11.10;1.00;;;;;;5034347;28;20092;-28
2022/08/28 02:43:29;;;;;;;11.98;2.88;;;11.10;1.00;;;;;;5035049;28;20045;-29
2022/08/28 02:45:55;;;;;;;10.73;2.50;;;11.10;27.30;;;;;;5033833;28;20052;-27
2022/08/28 02:48:21;;;;;;;9.20;2.40;;;11.20;96.70;;;;;;5034942;28;20046;-28
2022/08/28 02:50:47;;;;;;;10.82;2.22;;;11.20;45.10;;;;;;5032725;28;20487;-27
2022/08/28 02:53:13;;;;;;;10.35;2.72;;;11.30;82.90;;;;;;5034799;28;20052;-28
2022/08/28 02:55:43;;;;;;;8.30;2.50;;;11.30;97.10;;;;;;5034495;28;20063;-28
2022/08/28 02:58:09;;;;;;;12.27;2.67;;;11.10;80.80;;;;;;5033308;28;20041;-27
2022/08/28 03:00:35;;;;;;;8.57;1.83;;;11.10;70.90;;;;;;5033667;28;20381;-27
2022/08/28 03:03:01;;;;;;;9.88;2.70;;;11.10;43.70;;;;;;5032933;28;20415;-27
2022/08/28 03:05:27;;;;;;;12.13;2.30;;;11.10;91.30;;;;;;5033012;28;20116;-28
2022/08/28 03:07:52;;;;;;;7.47;1.90;;;11.20;99.90;;;;;;5034356;28;20567;-28
2022/08/28 03:10:22;;;;;;;9.90;2.22;;;11.00;99.90;;;;;;5033508;28;20045;-27
2022/08/28 03:12:48;;;;;;;13.85;2.35;;;11.00;99.90;;;;;;5031758;28;20041;-28
2022/08/28 03:15:16;;;;;;;14.13;2.42;;;11.20;99.90;;;;;;5033762;28;20053;-28
2022/08/28 03:17:42;;;;;;;9.25;2.40;;;11.10;99.90;;;;;;5032213;28;20116;-28
2022/08/28 03:20:12;;;;;;;9.02;2.78;;;11.10;99.90;;;;;;5034325;28;20136;-28
2022/08/28 03:25:25;;;;;;;15.10;2.50;;;11.40;99.90;;;;;;5033537;28;20395;-28
2022/08/28 03:27:51;;;;;;;13.13;2.50;;;11.50;99.90;;;;;;5033179;28;20048;-28
2022/08/28 03:30:19;;;;;;;12.93;2.42;;;11.90;99.90;;;;;;5033132;28;20049;-28
2022/08/28 03:32:45;;;;;;;5.25;1.80;;;12.00;99.90;;;;;;5031707;28;20053;-27
2022/08/28 03:35:13;;;;;;;10.65;2.08;;;12.20;99.90;;;;;;5032409;28;20057;-28
2022/08/28 03:37:39;;;;;;;10.65;2.05;;;12.20;99.90;;;;;;5033239;28;20053;-28
2022/08/28 03:40:12;;;;;;;10.02;1.80;;;12.20;99.90;;;;;;5031986;28;20052;-28
2022/08/28 03:42:38;;;;;;;;;;;12.30;92.40;;;;;;5033890;28;20068;-28
2022/08/28 03:45:07;;;;;;;10.63;1.52;;;12.50;99.90;;;;;;5032897;28;20291;-28
2022/08/28 03:47:37;;;;;;;14.52;2.22;;;12.80;56.80;;;;;;5033908;28;20132;-28
2022/08/28 03:50:07;;;;;;;7.05;1.98;;;12.70;1.00;;;;;;5032944;28;20049;-28
2022/08/28 03:52:40;;;;;;;7.75;1.90;;;12.90;1.00;;;;;;5032945;28;20480;-28
2022/08/28 03:55:10;;;;;;;12.40;2.15;;;12.90;1.00;;;;;;5032756;28;20475;-28
2022/08/28 03:57:36;;;;;;;10.02;2.45;;;13.00;1.00;;;;;;5034238;28;20084;-28
2022/08/28 04:00:10;;;;;;;11.68;2.53;;;12.90;1.00;;;;;;5032006;28;20140;-28
2022/08/28 04:02:35;;;;;;;9.73;2.47;;;12.90;1.00;;;;;;5031711;28;20045;-28
2022/08/28 04:05:01;;;;;;;9.15;2.25;;;12.90;99.90;;;;;;5047321;28;20080;-28
2022/08/28 04:07:27;;;;;;;13.20;3.28;;;12.70;99.90;;;;;;5032122;28;20041;-28
2022/08/28 04:09:52;;;;;;;12.82;2.42;;;12.60;99.90;;;;;;5032608;28;20209;-28
2022/08/28 04:12:18;;;;;;;8.13;1.98;;;12.40;99.90;;;;;;5032510;28;20052;-29
2022/08/28 04:14:44;;;;;;;8.18;2.20;;;12.40;99.90;;;;;;5031723;28;20042;-28
2022/08/28 04:17:10;;;;;;;10.43;2.17;;;12.40;1.00;;;;;;5033144;28;20041;-27
2022/08/28 04:19:36;;;;;;;12.88;2.20;;;12.30;99.90;;;;;;5032304;28;20372;-29
2022/08/28 04:22:02;;;;;;;11.85;2.58;;;12.10;1.00;;;;;;5031825;28;20042;-28
2022/08/28 04:24:28;;;;;;;8.52;2.22;;;12.00;99.90;;;;;;5032141;28;20095;-28
2022/08/28 04:26:54;;;;;;;9.30;1.95;;;12.00;1.00;;;;;;5032587;28;20104;-28
2022/08/28 04:29:21;;;;;;;8.63;1.63;;;12.00;1.00;;;;;;5032007;28;20046;-29
2022/08/28 04:31:47;;;;;;;10.48;1.77;;;11.80;1.00;;;;;;5048698;28;20049;-28
2022/08/28 04:34:12;;;;;;;7.57;2.45;;;11.90;1.00;;;;;;5032734;28;20499;-28
2022/08/28 04:36:41;;;;;;;6.68;1.85;;;11.90;1.00;;;;;;5037073;28;20491;-28
2022/08/28 04:39:09;;;;;;;8.95;2.10;;;12.10;1.00;;;;;;5034477;28;20095;-28
2022/08/28 04:41:37;;;;;;;7.22;1.88;;;12.00;1.00;;;;;;5036306;28;20049;-27
2022/08/28 04:44:04;;;;;;;8.48;1.95;;;12.00;1.00;;;;;;5035157;28;20107;-27
2022/08/28 04:46:30;;;;;;;7.60;1.95;;;12.00;1.00;;;;;;5052828;28;20053;-28
2022/08/28 04:48:56;;;;;;;13.55;2.20;;;12.30;1.00;;;;;;5019733;28;20081;-28
2022/08/28 04:51:21;;;;;;;11.07;3.05;;;12.30;1.00;;;;;;5036457;28;20147;-27
2022/08/28 04:53:47;;;;;;;7.78;1.80;;;12.20;1.00;;;;;;5035592;28;20060;-28
2022/08/28 04:56:15;;;;;;;10.88;2.10;;;12.30;1.00;;;;;;5036200;28;20048;-28
2022/08/28 04:58:43;;;;;;;8.27;1.92;;;12.20;1.00;;;;;;5048804;28;20044;-28
2022/08/28 05:01:12;;;;;;;6.25;2.22;;;12.60;60.30;;;;;;5035583;28;20149;-28
2022/08/28 05:03:38;;;;;;;9.68;1.85;;;12.60;99.90;;;;;;5051412;28;20071;-28
2022/08/28 05:06:09;;;;;;;6.57;2.70;;;12.80;99.90;;;;;;5050147;28;20041;-28
2022/08/28 05:08:35;;;;;;;16.75;2.25;;;13.00;99.90;;;;;;5017431;28;20050;-27
2022/08/28 05:11:18;;;;;;;13.90;2.67;;;13.30;99.90;;;;;;5036253;28;20408;-28
2022/08/28 05:13:44;;;;;;;8.85;1.77;;;13.60;99.90;;;;;;5052271;28;20396;-29
2022/08/28 05:16:11;;;;;;;7.32;1.52;;;13.80;99.90;;;;;;5035482;28;20042;-28
2022/08/28 05:18:42;;;;;;;7.93;2.22;;;14.10;99.90;;;;;;5033951;28;20124;-29
2022/08/28 05:21:15;;;;;;;12.27;2.92;;;14.20;91.00;;;;;;5016834;28;20058;-28
2022/08/28 05:23:41;;;;;;;13.02;2.75;;;14.40;57.30;;;;;;5021755;28;20045;-28
2022/08/28 05:26:11;;;;;;;9.88;2.13;;;14.60;9.30;;;;;;5035469;28;20127;-28
2022/08/28 05:28:42;;;;;;;9.48;1.85;;;14.70;1.00;;;;;;5034394;28;20048;-28
2022/08/28 05:31:16;;;;;;;8.02;1.50;;;14.90;1.00;;;;;;5034234;28;20132;-29
2022/08/28 05:33:46;;;;;;;7.25;1.83;;;15.10;1.00;;;;;;5018932;28;20049;-28
2022/08/28 05:36:13;;;;;;;10.73;1.80;;;15.20;99.90;;;;;;5034349;28;20132;-28
2022/08/28 05:38:39;;;;;;;7.05;2.03;;;15.30;99.90;;;;;;5050649;28;20058;-28
2022/08/28 05:41:05;;;;;;;7.93;1.90;;;15.30;99.90;;;;;;5035317;28;20045;-28
2022/08/28 05:43:36;;;;;;;9.73;1.83;;;15.20;99.90;;;;;;5035466;28;20052;-28
2022/08/28 05:46:07;;;;;;;12.00;1.85;;;15.20;99.90;;;;;;5032957;28;20190;-28
2022/08/28 05:48:33;;;;;;;8.77;2.53;;;15.30;99.90;;;;;;5034368;28;20542;-28
2022/08/28 05:51:12;;;;;;;10.15;1.73;;;15.20;99.90;;;;;;5035247;28;20041;-28
2022/08/28 05:53:40;;;;;;;9.50;1.48;;;15.10;99.90;;;;;;5035929;28;20061;-28
2022/08/28 05:56:20;;;;;;;13.23;2.47;;;15.10;87.40;;;;;;5051043;28;20045;-28
2022/08/28 05:58:46;;;;;;;13.50;1.88;;;15.10;22.60;;;;;;5031720;28;20053;-28
2022/08/28 06:01:18;;;;;;;7.10;1.95;;;15.10;1.00;;;;;;5034727;28;20052;-29
2022/08/28 06:03:53;;;;;;;7.77;1.43;;;15.00;1.00;;;;;;5034671;28;20132;-28
2022/08/28 06:06:20;;;;;;;9.13;1.33;;;15.10;1.00;;;;;;5034619;28;20041;-28
2022/08/28 06:08:46;;;;;;;6.93;1.55;;;15.20;1.00;;;;;;5033583;28;20530;-28
2022/08/28 06:11:14;;;;;;;6.35;1.85;;;15.10;99.90;;;;;;5034953;28;20053;-28
2022/08/28 06:13:40;;;;;;;12.95;2.72;;;15.20;99.90;;;;;;5032848;28;20111;-28
2022/08/28 06:16:08;;;;;;;6.22;1.70;;;15.20;99.90;;;;;;5050989;28;20042;-28
2022/08/28 06:18:33;;;;;;;5.38;1.40;;;15.40;99.90;;;;;;5034472;28;20107;-28
2022/08/28 06:21:01;;;;;;;5.90;1.35;;;15.50;99.90;;;;;;5050715;28;20081;-28
2022/08/28 06:23:27;;;;;;;7.18;1.77;;;15.50;99.90;;;;;;5034047;28;20049;-28
2022/08/28 06:25:53;;;;;;;8.80;1.38;;;15.60;99.90;;;;;;5034424;28;20095;-28
2022/08/28 06:28:25;;;;;;;7.75;1.65;;;15.70;99.90;;;;;;5015627;28;20042;-28
2022/08/28 06:30:52;;;;;;;8.20;1.40;;;15.80;99.90;;;;;;5029133;28;20049;-28
2022/08/28 06:33:20;;;;;;;8.20;1.52;;;16.00;70.30;;;;;;5035579;28;20392;-28
2022/08/28 06:35:53;;;;;;;12.25;1.90;;;16.00;6.40;;;;;;5034054;28;20048;-28
2022/08/28 06:38:22;;;;;;;6.43;1.42;;;16.10;12.30;;;;;;5033521;28;20049;-29
2022/08/28 06:40:53;;;;;;;6.75;1.50;;;16.30;1.00;;;;;;5033970;28;20042;-28
2022/08/28 06:43:23;;;;;;;7.32;1.77;;;16.40;1.00;;;;;;5033468;28;20498;-28
2022/08/28 06:45:53;;;;;;;8.07;1.70;;;16.40;1.00;;;;;;5034978;28;20464;-28
2022/08/28 06:48:20;;;;;;;7.90;1.30;;;16.50;1.00;;;;;;5033760;28;20055;-28
2022/08/28 06:50:54;;;;;;;7.45;1.15;;;16.50;1.00;;;;;;5034441;28;20040;-28
2022/08/28 06:53:30;;;;;;;8.52;1.63;;;16.70;1.00;;;;;;5050057;28;20045;-28
2022/08/28 06:55:58;;;;;;;2.92;1.23;;;16.70;1.00;;;;;;5033499;28;20044;-28
2022/08/28 06:58:29;;;;;;;6.18;1.80;;;16.80;99.90;;;;;;5031372;28;20049;-28
2022/08/28 07:01:14;;;;;;;6.85;1.30;;;16.90;99.90;;;;;;5032285;28;20048;-28
2022/08/28 07:03:42;;;;;;;5.03;1.38;;;17.00;99.90;;;;;;5036342;28;20106;-29
2022/08/28 07:06:09;;;;;;;5.63;1.75;;;17.00;99.90;;;;;;5040358;28;20124;-28
2022/08/28 07:08:38;;;;;;;5.68;1.17;;;17.00;99.90;;;;;;5037919;28;20507;-28
2022/08/28 07:11:24;;;;;;;10.50;1.35;;;17.10;99.90;;;;;;5034551;28;20102;-28
2022/08/28 07:13:53;;;;;;;6.55;1.05;;;17.20;99.90;;;;;;5034339;28;20050;-28
2022/08/28 07:16:28;;;;;;;5.57;1.27;;;17.30;99.90;;;;;;5034969;28;20049;-28
2022/08/28 07:18:57;;;;;;;5.90;1.25;;;17.30;99.90;;;;;;5034454;28;20053;-28
2022/08/28 07:21:23;;;;;;;5.32;1.58;;;17.30;1.00;;;;;;5034229;28;20488;-28
2022/08/28 07:23:49;;;;;;;7.28;1.75;;;17.20;1.00;;;;;;5033543;28;20048;-28
2022/08/28 07:26:19;;;;;;;4.97;1.40;;;17.30;1.00;;;;;;5049850;28;20483;-28
2022/08/28 07:28:53;;;;;;;7.15;1.40;;;17.20;1.00;;;;;;5034194;28;20041;-28
2022/08/28 07:31:24;;;;;;;5.70;1.70;;;17.30;26.20;;;;;;5037266;28;20101;-29
2022/08/28 07:33:52;;;;;;;7.18;1.58;;;17.40;8.50;;;;;;5035169;28;20092;-29
2022/08/28 07:36:24;;;;;;;8.32;1.65;;;17.50;1.00;;;;;;5034113;28;20142;-28
2022/08/28 07:38:51;;;;;;;8.65;2.65;;;17.60;1.00;;;;;;5032535;28;20492;-28
2022/08/28 07:41:23;;;;;;;3.72;1.35;;;17.60;1.00;;;;;;5015941;28;20140;-28
2022/08/28 07:46:36;;;;;;;6.25;1.40;;;17.90;1.00;;;;;;5034554;28;20391;-29
2022/08/28 07:49:05;;;;;;;16.55;2.67;;;18.00;1.00;;;;;;5032075;28;20491;-28
2022/08/28 07:51:31;;;;;;;9.35;2.25;;;18.00;1.00;;;;;;5033730;28;20045;-28
2022/08/28 07:53:57;;;;;;;4.57;1.60;;;18.10;99.90;;;;;;5032572;28;20088;-29
2022/08/28 07:56:25;;;;;;;8.15;1.60;;;18.10;99.90;;;;;;5031805;28;20046;-28
2022/08/28 07:58:53;;;;;;;5.50;1.35;;;18.20;1.00;;;;;;5033579;28;20056;-28
2022/08/28 08:01:19;;;;;;;6.68;1.58;;;18.30;1.00;;;;;;5031260;28;20046;-28
2022/08/28 08:03:46;;;;;;;6.38;1.67;;;18.40;1.00;;;;;;5031986;28;20088;-28
2022/08/28 08:06:13;;;;;;;8.27;1.90;;;18.50;1.00;;;;;;5033432;28;20118;-28
2022/08/28 08:08:44;;;;;;;16.13;2.00;;;18.60;1.00;;;;;;5032680;28;20050;-28
2022/08/28 08:11:17;;;;;;;7.32;1.38;;;18.70;99.90;;;;;;5033526;28;20076;-28
2022/08/28 08:13:45;;;;;;;6.45;1.50;;;18.70;99.90;;;;;;5034428;28;20072;-28
2022/08/28 08:16:17;;;;;;;7.47;1.05;;;18.60;99.90;;;;;;5033598;28;20045;-28
2022/08/28 08:18:44;;;;;;;9.15;1.90;;;18.60;99.90;;;;;;5032133;28;20494;-29
2022/08/28 08:21:12;;;;;;;5.22;1.40;;;18.60;99.90;;;;;;5033807;28;20041;-28
2022/08/28 08:23:43;;;;;;;5.65;1.40;;;18.90;99.90;;;;;;5033479;28;20049;-28
2022/08/28 08:26:16;;;;;;;6.90;1.48;;;19.10;99.90;;;;;;5033390;28;20041;-28
2022/08/28 08:28:46;;;;;;;5.43;1.48;;;19.10;1.00;;;;;;5032362;28;20132;-28
2022/08/28 08:31:15;;;;;;;9.18;1.77;;;19.00;1.00;;;;;;5033340;28;20049;-28
2022/08/28 08:33:45;;;;;;;3.30;1.27;;;19.00;99.90;;;;;;5033295;28;20057;-28
2022/08/28 08:36:13;;;;;;;5.93;1.63;;;19.10;1.00;;;;;;5034125;28;20136;-28
2022/08/28 08:38:39;;;;;;;16.45;1.67;;;19.40;1.00;;;;;;5032112;28;20573;-29
2022/08/28 08:41:12;;;;;;;7.38;1.65;;;19.50;99.90;;;;;;5032324;28;20123;-29
2022/08/28 08:44:04;;;;;;;9.13;1.92;;;19.30;99.90;;;;;;5031584;28;20120;-28
2022/08/28 08:46:38;;;;;;;6.55;2.90;;;19.30;99.90;;;;;;5033273;28;20053;-28
2022/08/28 08:49:14;;;;;;;7.97;2.03;;;19.30;99.90;;;;;;5032010;28;20045;-28
2022/08/28 08:51:45;;;;;;;7.15;1.55;;;19.60;99.90;;;;;;5033175;28;20049;-29
2022/08/28 08:54:18;;;;;;;6.63;1.67;;;20.00;99.90;;;;;;5032290;28;20499;-29
2022/08/28 08:56:45;;;;;;;5.90;1.70;;;20.30;1.00;;;;;;5032979;28;20483;-28
2022/08/28 08:59:21;;;;;;;8.52;2.00;;;20.10;99.90;;;;;;5033199;28;20103;-29
2022/08/28 09:02:17;;;;;;;5.70;1.40;;;19.60;57.00;;;;;;5033516;28;20046;-28
2022/08/28 09:05:00;;;;;;;5.20;1.45;;;19.10;99.90;;;;;;5032932;28;20514;-28
2022/08/28 09:07:43;;;;;;;5.93;1.60;;;19.10;99.90;;;;;;5033207;28;20049;-28
2022/08/28 09:10:11;;;;;;;8.80;1.70;;;20.00;99.90;;;;;;5033182;28;20049;-29
2022/08/28 09:12:53;;;;;;;6.25;1.60;;;20.70;1.00;;;;;;5031323;28;20048;-28
2022/08/28 09:15:33;;;;;;;8.98;1.52;;;20.90;1.00;;;;;;5030296;28;20057;-29
2022/08/28 09:18:23;;;;;;;6.25;2.20;;;21.10;99.90;;;;;;5028783;28;20046;-29
2022/08/28 09:20:55;;;;;;;6.80;2.03;;;21.70;99.90;;;;;;5024590;28;20062;-28
2022/08/28 09:23:25;;;;;;;4.50;1.90;;;22.00;99.90;;;;;;5017371;28;20053;-30
2022/08/28 09:26:00;;;;;;;7.72;1.90;;;21.60;99.90;;;;;;5035750;28;20500;-28
2022/08/28 09:28:27;;;;;;;5.32;1.52;;;21.10;99.90;;;;;;5034894;28;20049;-28
2022/08/28 09:31:06;;;;;;;6.25;2.13;;;21.00;1.00;;;;;;5036361;28;20045;-29
2022/08/28 09:33:39;;;;;;;7.85;1.92;;;21.80;1.00;;;;;;5036750;28;20088;-29
2022/08/28 09:36:32;;;;;;;9.15;1.55;;;21.60;99.90;;;;;;5039871;28;20053;-29
2022/08/28 09:39:22;;;;;;;7.63;1.52;;;22.00;99.90;;;;;;5035336;28;20054;-29
2022/08/28 09:45:07;;;;;;;5.43;1.60;;;21.70;99.90;;;;;;5041954;28;20511;-29
2022/08/28 09:47:47;;;;;;;8.27;1.40;;;21.40;99.90;;;;;;5017200;28;20068;-29
2022/08/28 09:50:43;;;;;;;8.13;1.67;;;20.90;1.00;;;;;;5029057;28;20053;-29
2022/08/28 09:53:11;;;;;;;6.15;1.40;;;21.20;99.90;;;;;;5036631;28;20047;-29
2022/08/28 09:55:58;;;;;;;7.45;1.77;;;21.10;1.00;;;;;;5034861;28;20072;-28
2022/08/28 09:58:38;;;;;;;8.02;2.00;;;22.00;99.90;;;;;;5035940;28;20494;-29
2022/08/28 10:01:30;;;;;;;12.30;2.08;;;22.10;99.90;;;;;;5014180;28;20080;-28
2022/08/28 10:04:23;;;;;;;5.47;1.42;;;21.40;99.90;;;;;;5024483;28;20100;-28
2022/08/28 10:07:01;;;;;;;;;;;20.80;99.90;;;;;;5039070;28;20437;-28
2022/08/28 10:09:32;;;;;;;5.15;1.20;;;20.00;1.00;;;;;;5027030;28;20020;-28
2022/08/28 10:12:32;;;;;;;5.65;1.85;;;20.80;99.90;;;;;;5026514;28;20057;-29
2022/08/28 10:15:16;;;;;;;4.53;1.35;;;21.60;99.90;;;;;;5027595;28;20049;-28
2022/08/28 10:18:24;;;;;;;4.25;1.45;;;21.50;99.90;;;;;;5028116;28;20065;-28
2022/08/28 10:21:18;;;;;;;3.95;1.33;;;21.40;99.90;;;;;;5014901;28;20137;-28
2022/08/28 10:23:57;;;;;;;4.40;1.58;;;21.80;99.90;;;;;;5031702;28;20049;-31
2022/08/28 10:26:44;;;;;;;5.80;1.50;;;22.50;99.90;;;;;;5042694;28;20453;-29
2022/08/28 10:29:47;;;;;;;5.97;1.52;;;21.90;99.90;;;;;;5026182;28;20045;-29
2022/08/28 10:33:08;;;;;;;7.93;1.60;;;21.60;99.90;;;;;;5026831;28;20415;-29
2022/08/28 10:35:53;;;;;;;10.20;1.50;;;22.30;99.90;;;;;;5044324;28;20303;-29
2022/08/28 10:38:34;;;;;;;4.20;1.20;;;22.50;77.90;;;;;;5033649;28;20628;-29
2022/08/28 10:41:39;;;;;;;5.47;1.75;;;21.60;99.90;;;;;;5032390;28;20415;-29
2022/08/28 10:44:12;;;;;;;5.72;1.60;;;21.20;99.90;;;;;;5024359;28;20042;-29
2022/08/28 10:46:48;;;;;;;5.55;1.40;;;20.10;99.90;;;;;;5032725;28;20076;-28
2022/08/28 10:49:48;;;;;;;6.90;2.25;;;20.50;99.90;;;;;;5029392;28;20476;-28
2022/08/28 10:52:34;;;;;;;4.65;1.25;;;21.50;99.90;;;;;;5047233;28;20128;-29
2022/08/28 10:55:28;;;;;;;8.15;1.60;;;22.40;99.90;;;;;;5028526;28;20048;-28
2022/08/28 10:57:59;;;;;;;6.95;1.40;;;22.70;67.30;;;;;;5038001;28;20135;-29
2022/08/28 11:00:27;;;;;;;5.53;1.40;;;23.10;99.90;;;;;;5035626;28;20041;-29
2022/08/28 11:03:15;;;;;;;5.03;1.38;;;23.20;99.90;;;;;;5037960;28;20041;-29
2022/08/28 11:05:49;;;;;;;8.30;1.45;;;23.80;99.90;;;;;;5049543;28;20056;-28
2022/08/28 11:08:29;;;;;;;6.97;1.63;;;23.90;99.90;;;;;;5031359;28;20543;-29
2022/08/28 11:11:01;;;;;;;3.92;1.25;;;24.40;99.90;;;;;;5031201;28;20056;-29
2022/08/28 11:13:59;;;;;;;4.22;1.63;;;24.60;99.90;;;;;;5034477;28;20120;-28
2022/08/28 11:16:36;;;;;;;6.97;1.50;;;24.40;99.90;;;;;;5031313;28;20120;-29
2022/08/28 11:19:32;;;;;;;10.65;2.05;;;23.80;1.00;;;;;;5036642;28;20107;-28
2022/08/28 11:22:22;;;;;;;6.13;1.38;;;23.90;1.00;;;;;;5027960;28;20061;-29
2022/08/28 11:25:12;;;;;;;5.85;1.38;;;23.60;99.90;;;;;;5031982;28;20526;-29
2022/08/28 11:27:59;;;;;;;3.58;1.65;;;23.80;99.90;;;;;;5026366;28;20049;-29
2022/08/28 11:30:35;;;;;;;4.90;1.48;;;24.20;99.90;;;;;;5027273;28;20037;-29
2022/08/28 11:33:05;;;;;;;3.63;1.20;;;24.40;99.90;;;;;;5030485;28;20063;-30
2022/08/28 11:35:39;;;;;;;6.18;1.73;;;24.20;99.90;;;;;;5027639;28;20045;-29
2022/08/28 11:38:08;;;;;;;7.85;1.65;;;24.50;99.90;;;;;;5036261;28;20098;-29
2022/08/28 11:40:35;;;;;;;4.32;1.17;;;23.70;99.90;;;;;;5025731;28;20120;-29
2022/08/28 11:43:13;;;;;;;6.55;2.00;;;23.70;99.90;;;;;;5025617;28;20053;-29
2022/08/28 11:45:45;;;;;;;4.45;1.20;;;24.00;1.00;;;;;;5025722;28;20985;-29
2022/08/28 11:48:36;;;;;;;4.03;1.73;;;23.40;1.00;;;;;;5026329;28;20050;-29
2022/08/28 11:51:29;;;;;;;5.47;1.30;;;24.00;99.90;;;;;;5020696;28;20045;-30
2022/08/28 11:54:20;;;;;;;5.13;1.23;;;24.10;99.90;;;;;;5025817;28;20037;-29
2022/08/28 11:57:20;;;;;;;6.53;1.50;;;23.10;99.90;;;;;;5030737;28;20048;-28
2022/08/28 12:00:09;;;;;;;5.43;1.63;;;22.60;99.90;;;;;;5030471;28;20048;-28
2022/08/28 12:02:38;;;;;;;4.65;1.23;;;21.90;1.00;;;;;;5029850;28;20462;-28
2022/08/28 12:05:08;;;;;;;4.43;1.35;;;22.50;1.00;;;;;;5042067;28;20061;-28
2022/08/28 12:07:38;;;;;;;4.95;1.30;;;23.30;1.00;;;;;;5026522;28;20076;-29
2022/08/28 12:10:23;;;;;;;8.20;1.20;;;24.00;99.90;;;;;;5030139;28;20491;-28
2022/08/28 12:12:55;;;;;;;6.05;1.30;;;24.10;99.90;;;;;;5029211;28;20081;-29
2022/08/28 12:15:26;;;;;;;3.63;1.15;;;24.40;1.00;;;;;;5022118;28;20053;-28
2022/08/28 12:18:08;;;;;;;5.85;1.40;;;24.10;1.00;;;;;;5029413;28;20519;-29
2022/08/28 12:20:53;;;;;;;7.28;1.65;;;23.60;1.00;;;;;;5027508;28;20083;-28
2022/08/28 12:23:33;;;;;;;4.88;1.23;;;23.40;1.00;;;;;;5028459;28;20080;-29
2022/08/28 12:26:19;;;;;;;8.70;2.75;;;23.60;1.00;;;;;;5030626;28;20045;-29
2022/08/28 12:28:51;;;;;;;7.53;1.45;;;23.60;20.30;;;;;;5028429;28;20577;-30
2022/08/28 12:32:10;;;;;;;4.55;1.23;;;23.30;1.00;;;;;;5033568;28;20517;-29
2022/08/28 12:34:51;;;;;;;5.35;1.33;;;22.80;32.10;;;;;;4988396;28;20433;-29
2022/08/28 12:37:32;;;;;;;3.60;1.40;;;22.30;1.00;;;;;;4987427;28;20050;-29
2022/08/28 12:40:16;;;;;;;3.65;1.38;;;21.70;1.00;;;;;;5010301;28;20058;-29
2022/08/28 12:42:50;;;;;;;3.97;1.00;;;21.20;87.00;;;;;;5027543;28;20404;-29
2022/08/28 12:45:40;;;;;;;6.90;1.63;;;21.10;99.90;;;;;;5019914;28;20045;-29
2022/08/28 12:48:14;;;;;;;5.15;1.17;;;21.40;99.90;;;;;;5031230;28;20049;-29
2022/08/28 12:50:40;;;;;;;3.67;1.17;;;21.90;91.30;;;;;;5028941;28;20099;-29
2022/08/28 12:53:11;;;;;;;4.10;1.05;;;21.80;55.30;;;;;;5027328;28;20077;-29
2022/08/28 12:55:38;;;;;;;2.58;1.00;;;21.80;94.30;;;;;;5018212;28;21040;-31
2022/08/28 12:58:29;;;;;;;8.07;1.70;;;21.60;70.40;;;;;;5032237;28;20115;-29
2022/08/28 13:00:59;;;;;;;5.47;1.33;;;21.30;90.50;;;;;;5027109;28;20106;-29
2022/08/28 13:03:25;;;;;;;4.13;1.10;;;20.80;99.90;;;;;;5028987;28;20088;-29
2022/08/28 13:06:28;;;;;;;4.32;1.10;;;20.90;99.90;;;;;;5034763;28;20056;-30
2022/08/28 13:09:02;;;;;;;4.18;0.90;;;20.70;99.90;;;;;;5025431;28;20045;-29
2022/08/28 13:11:39;;;;;;;5.93;1.15;;;20.80;99.90;;;;;;5048561;28;20084;-29
2022/08/28 13:14:07;;;;;;;6.10;1.25;;;20.90;99.90;;;;;;5026812;28;20049;-28
2022/08/28 13:16:47;;;;;;;4.70;1.02;;;20.80;99.90;;;;;;5028371;28;20061;-28
2022/08/28 13:19:31;;;;;;;8.35;1.30;;;20.80;99.90;;;;;;5025134;28;20112;-30
2022/08/28 13:22:00;;;;;;;3.30;0.93;;;20.50;99.90;;;;;;5030241;28;20045;-28
2022/08/28 13:24:47;;;;;;;5.50;1.10;;;20.30;99.90;;;;;;5032630;28;20041;-28
2022/08/28 13:27:22;;;;;;;4.38;1.17;;;20.50;99.90;;;;;;5031367;28;20124;-28